Latest Weather Observations for Tennant Creek

IDD60801

Issued at 4:05 pm CST Thursday 23 October 2014 (issued every 30 minutes, with the page automatically refreshed every 10 minutes)

About weather observations | Map of weather stations | Latest weather observations for NT | Other Formats
Station Details ID: 015135 Name: TENNANT CREEK AIRPORT Lat: -19.64 Lon: 134.18 Height: 375.7 m
Data from the previous 72 hours. | See also: Recent months at Tennant Creek
Date/Time
CST
Temp
°C
App
Temp
°C
Dew
Point
Rel
Hum
%
Delta-T
°C
Wind Press
QNH
hPa
Press
MSL
hPa
Rain
since 9 am
mm
Dir
 
Spd
km/h
Gust
km/h
Spd
kts
Gust
kts
23/04:00pm 36.0 29.9 0.5 10 18.1 SE 22 28 12 15 1012.7 - 0.0
23/03:30pm 36.2 30.3 -0.8 9 18.5 E 20 33 11 18 1012.9 - 0.0
23/03:00pm 35.8 28.9 -0.1 10 18.1 E 26 39 14 21 1013.1 1010.5 0.0
23/02:30pm 34.8 30.0 2.4 13 16.9 SE 17 28 9 15 1013.4 - 0.0
23/02:00pm 36.1 30.2 1.6 11 17.9 E 22 32 12 17 1013.8 - 0.0
23/01:30pm 34.8 30.4 2.7 13 16.8 ENE 15 35 8 19 1014.4 - 0.0
23/01:00pm 34.6 30.0 3.8 14 16.4 ENE 17 35 9 19 1015.1 - 0.0
23/12:30pm 34.6 27.8 3.0 13 16.6 E 28 33 15 18 1015.8 - 0.0
23/12:00pm 33.7 30.2 5.6 17 15.3 NNE 13 28 7 15 1016.3 1013.8 0.0
23/11:30am 34.0 30.8 6.9 18 15.1 ENE 13 22 7 12 1016.7 - 0.0
23/11:00am 33.2 28.8 7.5 20 14.4 NNE 20 33 11 18 1017.2 - 0.0
23/10:30am 32.4 26.8 8.9 23 13.4 NE 28 33 15 18 1017.5 - 0.0
23/10:00am 31.7 27.6 8.5 23 13.1 N 20 32 11 17 1017.9 - 0.0
23/09:30am 31.4 28.6 11.2 29 11.9 N 17 28 9 15 1017.9 - 0.0
23/09:00am 30.8 27.6 11.2 30 11.5 N 19 26 10 14 1017.8 1015.2 0.0
23/08:30am 29.0 25.6 11.1 33 10.4 N 20 26 11 14 1017.6 - 0.0
23/08:00am 27.9 23.1 10.2 33 10.1 N 26 30 14 16 1017.4 - 0.0
23/07:30am 26.2 21.6 11.0 38 8.7 N 26 32 14 17 1017.2 - 0.0
23/07:00am 24.9 20.9 10.6 40 8.1 N 22 28 12 15 1016.9 - 0.0
23/06:30am 24.0 20.2 9.8 40 7.9 N 20 28 11 15 1016.6 - 0.0
23/06:00am 23.2 19.2 8.9 40 7.8 N 20 26 11 14 1016.3 1013.8 0.0
23/05:30am 23.2 19.2 8.4 38 8.0 N 19 26 10 14 1016.0 - 0.0
23/05:00am 23.5 19.0 7.0 34 8.7 N 20 26 11 14 1015.7 - 0.0
23/04:30am 24.1 19.4 5.2 29 9.7 NNE 19 24 10 13 1015.3 - 0.0
23/04:00am 25.3 19.5 4.2 25 10.7 NNE 24 33 13 18 1015.0 - 0.0
23/03:30am 26.4 20.3 3.0 22 11.7 NE 24 33 13 18 1014.5 - 0.0
23/03:00am 27.2 20.9 1.8 19 12.5 ENE 24 33 13 18 1014.4 1011.9 0.0
23/02:30am 27.1 20.9 -0.4 16 13.0 ENE 22 30 12 16 1014.5 - 0.0
23/02:00am 25.8 19.8 -1.8 16 12.6 ENE 20 28 11 15 1014.7 - 0.0
23/01:30am 25.5 20.2 -3.5 14 12.8 E 15 20 8 11 1015.0 - 0.0
23/01:00am 26.2 21.3 -3.6 14 13.2 E 13 17 7 9 1015.2 - 0.0
23/12:30am 26.6 21.7 -3.5 13 13.4 E 13 20 7 11 1015.4 - 0.0
23/12:00am 25.7 21.9 -0.4 18 12.2 E 9 11 5 6 1015.6 1013.0 0.0
 
Date/Time
CST
Temp
°C
App
Temp
°C
Dew
Point
Rel
Hum
%
Delta-T
°C
Wind Press
QNH
hPa
Press
MSL
hPa
Rain
since 9 am
mm
Dir
 
Spd
km/h
Gust
km/h
Spd
kts
Gust
kts
22/11:30pm 25.9 22.3 0.5 19 12.1 E 9 11 5 6 1016.0 - 0.0
22/11:00pm 26.4 22.8 0.4 18 12.4 E 9 11 5 6 1016.1 - 0.0
22/10:30pm 26.9 23.2 -0.1 17 12.8 E 9 11 5 6 1016.3 - 0.0
22/10:00pm 27.7 24.0 0.2 16 13.2 E 9 11 5 6 1016.1 - 0.0
22/09:30pm 28.3 24.2 -0.5 15 13.7 E 11 13 6 7 1016.0 - 0.0
22/09:00pm 29.5 25.5 0.4 15 14.2 E 11 15 6 8 1015.7 1013.1 0.0
22/08:30pm 30.0 26.0 0.3 14 14.5 E 11 15 6 8 1015.4 - 0.0
22/08:00pm 31.4 27.8 0.5 14 15.3 ESE 9 13 5 7 1015.0 - 0.0
22/07:30pm 32.2 27.7 -0.1 12 15.9 ESE 13 20 7 11 1014.6 - 0.0
22/07:00pm 32.8 28.5 1.0 13 16.0 E 13 17 7 9 1014.3 - 0.0
22/06:30pm 34.0 29.5 -0.1 11 17.0 E 13 17 7 9 1013.9 - 0.0
22/06:00pm 34.8 29.4 1.1 12 17.2 E 19 28 10 15 1013.6 1011.1 0.0
22/05:30pm 35.6 30.5 0.7 11 17.8 ESE 17 26 9 14 1013.3 - 0.0
22/05:00pm 35.8 30.6 -0.1 10 18.1 E 17 32 9 17 1013.2 - 0.0
22/04:30pm 36.2 32.2 0.6 10 18.2 ESE 11 24 6 13 1013.2 - 0.0
22/04:00pm 36.4 28.9 1.5 11 18.1 E 30 35 16 19 1013.2 - 0.0
22/03:30pm 35.7 30.5 3.4 13 17.2 ENE 20 39 11 21 1013.5 - 0.0
22/03:00pm 35.5 30.0 4.0 14 16.9 E 22 33 12 18 1013.8 1011.3 0.0
22/02:30pm 36.0 32.4 2.9 12 17.5 ENE 11 28 6 15 1014.2 - 0.0
22/02:00pm 35.1 31.7 5.9 16 16.1 ESE 13 20 7 11 1014.6 - 0.0
22/01:30pm 35.5 31.8 6.1 16 16.3 ESE 15 28 8 15 1015.1 - 0.0
22/01:00pm 35.1 31.2 6.9 17 15.8 NE 17 26 9 14 1015.7 - 0.0
22/12:30pm 33.7 30.7 7.5 19 14.7 SE 13 22 7 12 1016.2 - 0.0
22/12:00pm 33.3 28.4 6.7 19 14.7 NNE 22 35 12 19 1016.7 1014.2 0.0
22/11:30am 33.3 29.2 8.0 21 14.3 NNE 19 33 10 18 1017.0 - 0.0
22/11:00am 34.1 29.7 6.4 18 15.3 NNE 19 33 10 18 1017.3 - 0.0
22/10:30am 32.5 27.7 7.3 21 14.0 N 22 30 12 16 1017.8 - 0.0
22/10:00am 32.1 27.8 9.5 24 13.0 N 22 28 12 15 1017.9 - 0.0
22/09:30am 31.2 27.6 9.8 26 12.3 N 19 24 10 13 1018.1 - 0.0
22/09:00am 29.6 25.4 9.8 29 11.3 N 22 30 12 16 1018.1 1015.5 0.0
22/08:30am 28.4 23.8 9.7 31 10.6 N 24 30 13 16 1017.8 - 0.0
22/08:00am 27.2 22.6 9.6 33 9.9 N 24 33 13 18 1017.3 - 0.0
22/07:30am 25.4 20.1 9.9 37 8.7 N 28 32 15 17 1017.1 - 0.0
22/07:00am 24.1 19.9 8.2 36 8.6 N 20 28 11 15 1016.8 - 0.0
22/06:30am 22.6 18.3 8.0 39 7.8 N 20 32 11 17 1016.3 - 0.0
22/06:00am 22.2 17.7 6.9 37 8.0 NNE 20 26 11 14 1015.9 1013.4 0.0
22/05:30am 22.7 17.7 3.7 29 9.4 NNE 19 26 10 14 1015.6 - 0.0
22/05:00am 24.0 18.2 -0.1 20 11.2 NE 20 28 11 15 1015.4 - 0.0
22/04:30am 25.4 19.4 -3.3 15 12.7 NE 19 28 10 15 1015.0 - 0.0
22/04:00am 24.2 19.3 -3.1 16 12.0 E 13 15 7 8 1014.8 - 0.0
22/03:30am 24.8 19.9 -3.0 15 12.3 ENE 13 17 7 9 1015.0 - 0.0
22/03:00am 25.1 19.9 -2.7 16 12.4 ENE 15 17 8 9 1014.8 1012.3 0.0
22/02:30am 25.1 20.3 -2.7 16 12.4 ENE 13 15 7 8 1014.8 - 0.0
22/02:00am 24.7 20.4 -1.4 17 11.9 ENE 11 15 6 8 1015.2 - 0.0
22/01:30am 23.7 19.0 -1.6 18 11.4 E 13 13 7 7 1015.6 - 0.0
22/01:00am 24.6 20.8 -0.8 18 11.7 E 9 11 5 6 1016.0 - 0.0
22/12:30am 25.3 21.1 -0.9 17 12.1 E 11 13 6 7 1016.3 - 0.0
22/12:00am 27.5 22.9 -4.0 12 14.0 ESE 11 17 6 9 1016.6 1014.1 0.0
 
Date/Time
CST
Temp
°C
App
Temp
°C
Dew
Point
Rel
Hum
%
Delta-T
°C
Wind Press
QNH
hPa
Press
MSL
hPa
Rain
since 9 am
mm
Dir
 
Spd
km/h
Gust
km/h
Spd
kts
Gust
kts
21/11:30pm 25.5 22.6 2.6 22 11.3 ENE 7 9 4 5 1016.7 - 0.0
21/11:00pm 25.4 23.0 5.3 27 10.4 E 7 9 4 5 1017.1 - 0.0
21/10:30pm 26.2 23.2 1.8 20 11.9 E 7 7 4 4 1017.3 - 0.0
21/10:00pm 26.8 24.4 4.4 23 11.5 E 6 7 3 4 1017.4 - 0.0
21/09:30pm 28.1 24.9 0.7 17 13.3 E 7 9 4 5 1017.2 - 0.0
21/09:00pm 28.8 24.5 -1.4 14 14.2 E 11 13 6 7 1016.9 1014.4 0.0
21/08:30pm 29.7 25.5 -0.9 13 14.6 E 11 13 6 7 1016.7 - 0.0
21/08:00pm 29.6 26.0 0.6 15 14.2 E 9 11 5 6 1016.3 - 0.0
21/07:30pm 31.5 27.2 -1.5 12 15.8 E 11 15 6 8 1016.0 - 0.0
21/07:00pm 31.9 27.8 0.0 13 15.7 E 11 13 6 7 1015.6 - 0.0
21/06:30pm 33.6 29.0 -1.3 10 17.0 E 13 15 7 8 1015.1 - 0.0
21/06:00pm 34.5 29.9 -1.1 10 17.5 ESE 13 22 7 12 1014.6 1012.1 0.0
21/05:30pm 34.8 29.5 -0.7 10 17.6 E 17 30 9 16 1014.4 - 0.0
21/05:00pm 35.2 31.6 0.5 11 17.6 NE 9 15 5 8 1014.1 - 0.0
21/04:30pm 35.5 30.7 0.4 11 17.8 ESE 15 28 8 15 1014.0 - 0.0
21/04:00pm 35.7 30.3 -1.4 9 18.3 ENE 17 32 9 17 1014.2 - 0.0
21/03:30pm 36.0 30.3 0.4 10 18.1 E 20 32 11 17 1014.3 - 0.0
21/03:00pm 35.5 31.7 4.0 14 16.9 ESE 13 26 7 14 1014.5 1012.0 0.0
21/02:30pm 35.5 32.0 1.2 11 17.6 ESE 9 22 5 12 1015.0 - 0.0
21/02:00pm 35.5 32.1 2.1 12 17.4 NNE 9 17 5 9 1015.4 - 0.0
21/01:30pm 34.3 28.9 1.0 12 16.9 ESE 19 30 10 16 1016.1 - 0.0
21/01:00pm 34.3 28.2 0.6 12 17.0 ENE 22 32 12 17 1016.6 - 0.0
21/12:30pm 35.4 31.4 0.5 11 17.7 NE 11 22 6 12 1017.1 - 0.0
21/12:00pm 33.6 28.4 0.0 12 16.7 NE 17 22 9 12 1017.6 1015.1 0.0
21/11:30am 34.6 28.5 2.6 13 16.7 NNE 24 41 13 22 1018.1 - 0.0
21/11:00am 32.7 27.8 4.9 17 14.9 ENE 20 24 11 13 1018.6 - 0.0
21/10:30am 32.9 27.3 5.6 18 14.8 NNE 24 33 13 18 1018.9 - 0.0
21/10:00am 32.0 26.4 7.0 21 13.8 NNE 26 39 14 21 1019.2 - 0.0
21/09:30am 31.2 27.9 10.8 28 11.9 NNE 19 28 10 15 1019.4 - 0.0
21/09:00am 29.6 26.5 11.5 32 10.6 N 19 24 10 13 1019.5 1017.0 0.0
21/08:30am 28.5 26.6 11.8 35 9.8 N 13 22 7 12 1019.6 - 0.0
21/08:00am 26.6 25.3 11.4 38 8.8 NNE 9 13 5 7 1019.3 - 0.0
21/07:30am 25.6 23.6 10.1 37 8.7 NE 11 20 6 11 1019.1 - 0.0
21/07:00am 23.6 20.4 3.3 26 10.0 ENE 9 11 5 6 1018.6 - 0.0
21/06:30am 22.2 17.9 1.0 24 9.9 E 13 17 7 9 1018.3 - 0.0
21/06:00am 22.4 18.1 1.0 24 10.0 E 13 17 7 9 1017.9 1015.3 0.0
21/05:30am 23.2 19.3 1.2 23 10.4 E 11 13 6 7 1017.3 - 0.0
21/05:00am 22.3 18.4 0.9 24 10.0 ENE 11 15 6 8 1017.0 - 0.0
21/04:30am 22.4 18.9 1.4 25 9.9 E 9 13 5 7 1016.3 - 0.0
21/04:00am 22.7 18.7 0.2 22 10.4 E 11 13 6 7 1016.1 - 0.0
21/03:30am 23.2 19.6 0.5 22 10.6 E 9 13 5 7 1016.0 - 0.0
21/03:00am 24.2 19.8 0.3 20 11.2 E 13 20 7 11 1015.8 1013.3 0.0
21/02:30am 23.8 20.3 1.3 22 10.7 E 9 11 5 6 1015.7 - 0.0
21/02:00am 24.2 20.6 0.7 21 11.1 E 9 11 5 6 1015.8 - 0.0
21/01:30am 24.9 20.9 0.2 19 11.6 E 11 15 6 8 1016.0 - 0.0
21/01:00am 25.9 21.3 -0.7 17 12.4 ENE 13 15 7 8 1016.2 - 0.0
21/12:30am 26.5 20.8 -3.8 13 13.4 E 17 22 9 12 1016.5 - 0.0
21/12:00am 26.3 21.4 -3.4 14 13.2 E 13 17 7 9 1016.7 1014.2 0.0
 
Date/Time
CST
Temp
°C
App
Temp
°C
Dew
Point
Rel
Hum
%
Delta-T
°C
Wind Press
QNH
hPa
Press
MSL
hPa
Rain
since 9 am
mm
Dir
 
Spd
km/h
Gust
km/h
Spd
kts
Gust
kts
20/11:30pm 26.0 21.6 -2.7 15 12.9 E 11 13 6 7 1016.7 - 0.0
20/11:00pm 26.8 22.9 -1.6 15 13.1 E 9 13 5 7 1016.8 - 0.0
20/10:30pm 26.7 22.0 -1.9 15 13.1 E 13 15 7 8 1017.0 - 0.0
20/10:00pm 27.2 23.0 -0.6 16 13.1 E 11 13 6 7 1016.9 - 0.0
20/09:30pm 27.3 23.7 0.4 17 12.9 E 9 11 5 6 1016.8 - 0.0
20/09:00pm 27.9 25.2 3.6 21 12.4 E 7 11 4 6 1016.5 1014.0 0.0
20/08:30pm 28.7 25.5 0.5 16 13.7 ESE 7 9 4 5 1016.2 - 0.0
20/08:00pm 29.7 26.3 -0.9 13 14.6 ESE 7 13 4 7 1015.9 - 0.0
20/07:30pm 30.5 27.4 0.3 14 14.8 ESE 6 9 3 5 1015.5 - 0.0
20/07:00pm 32.1 28.1 -2.2 11 16.3 E 9 13 5 7 1015.1 - 0.0
20/06:30pm 33.4 28.0 -4.5 8 17.5 ESE 15 24 8 13 1014.7 - 0.0
20/06:00pm 34.4 29.1 -3.4 9 17.9 ESE 15 26 8 14 1014.4 1011.9 0.0
20/05:30pm 34.7 28.8 -1.9 9 17.8 ESE 19 26 10 14 1014.1 - 0.0
20/05:00pm 35.0 30.0 -1.0 10 17.8 E 15 26 8 14 1013.9 - 0.0
20/04:30pm 34.9 31.0 1.0 11 17.3 ESE 11 20 6 11 1013.9 - 0.0

Other Formats:

Comma delimited format used in spreadsheet applications
http://www.bom.gov.au/fwo/IDD60801/IDD60801.94238.axf

JavaScript Object Notation format (JSON) in row-major order
http://www.bom.gov.au/fwo/IDD60801/IDD60801.94238.json